Terminal Aerodrome Forecast
Issued by NWS

Home | Current Version | Previous Version | Text Only | Print | Product List | Glossary On
Versions: 1 2 3 4 5 6 7 8 9 10 11 12 13 14 15
000
FTUS46 KPDT 201139
TAFRDM
TAF
KRDM 201139Z 2012/2112 15008KT P6SM SCT060 OVC080
     FM201600 16012KT 3SM -SN BR BKN015 OVC035
     FM202000 18011KT P6SM VCSH SCT015 BKN035 OVC070
     FM210200 22006KT P6SM BKN040 BKN080=

USA.gov is the U.S. government's official web portal to all federal, state and local government web resources and services.